sensor_id;sensor_type;location;lat;lon;timestamp;temperature;humidity
31967;DHT22;18496;52.042;6.812;2024-01-16T00:01:58;2.10;99.90
31967;DHT22;18496;52.042;6.812;2024-01-16T00:04:02;2.10;99.90
31967;DHT22;18496;52.042;6.812;2024-01-16T00:06:06;2.10;99.90
31967;DHT22;18496;52.042;6.812;2024-01-16T00:08:11;2.10;99.90
31967;DHT22;18496;52.042;6.812;2024-01-16T00:10:14;2.10;99.90
31967;DHT22;18496;52.042;6.812;2024-01-16T00:12:18;2.00;99.90
31967;DHT22;18496;52.042;6.812;2024-01-16T00:14:22;2.10;99.90
31967;DHT22;18496;52.042;6.812;2024-01-16T00:16:25;2.10;99.90
31967;DHT22;18496;52.042;6.812;2024-01-16T00:18:29;2.00;99.90
31967;DHT22;18496;52.042;6.812;2024-01-16T00:20:33;2.10;99.90
31967;DHT22;18496;52.042;6.812;2024-01-16T00:22:37;2.10;99.90
31967;DHT22;18496;52.042;6.812;2024-01-16T00:24:40;2.00;99.90
31967;DHT22;18496;52.042;6.812;2024-01-16T00:26:44;2.10;99.90
31967;DHT22;18496;52.042;6.812;2024-01-16T00:28:48;2.00;99.90
31967;DHT22;18496;52.042;6.812;2024-01-16T00:30:51;2.00;99.90
31967;DHT22;18496;52.042;6.812;2024-01-16T00:32:55;2.00;99.90
31967;DHT22;18496;52.042;6.812;2024-01-16T00:34:59;2.00;99.90
31967;DHT22;18496;52.042;6.812;2024-01-16T00:37:02;2.00;99.90
31967;DHT22;18496;52.042;6.812;2024-01-16T00:39:06;2.00;99.90
31967;DHT22;18496;52.042;6.812;2024-01-16T00:41:12;2.00;99.90
31967;DHT22;18496;52.042;6.812;2024-01-16T00:43:17;2.00;99.90
31967;DHT22;18496;52.042;6.812;2024-01-16T00:45:21;2.00;99.90
31967;DHT22;18496;52.042;6.812;2024-01-16T00:47:25;2.00;99.90
31967;DHT22;18496;52.042;6.812;2024-01-16T00:49:29;2.00;99.90
31967;DHT22;18496;52.042;6.812;2024-01-16T00:51:33;1.90;99.90
31967;DHT22;18496;52.042;6.812;2024-01-16T00:53:43;1.90;99.90
31967;DHT22;18496;52.042;6.812;2024-01-16T00:55:47;1.90;99.90
31967;DHT22;18496;52.042;6.812;2024-01-16T00:57:51;1.90;99.90
31967;DHT22;18496;52.042;6.812;2024-01-16T00:59:55;1.80;99.90
31967;DHT22;18496;52.042;6.812;2024-01-16T01:01:59;1.90;99.90
31967;DHT22;18496;52.042;6.812;2024-01-16T01:04:03;1.90;99.90
31967;DHT22;18496;52.042;6.812;2024-01-16T01:06:07;1.90;99.90
31967;DHT22;18496;52.042;6.812;2024-01-16T01:08:10;1.90;99.90
31967;DHT22;18496;52.042;6.812;2024-01-16T01:10:14;1.80;99.90
31967;DHT22;18496;52.042;6.812;2024-01-16T01:12:18;1.90;99.90
31967;DHT22;18496;52.042;6.812;2024-01-16T01:14:22;1.80;99.90
31967;DHT22;18496;52.042;6.812;2024-01-16T01:16:25;1.80;99.90
31967;DHT22;18496;52.042;6.812;2024-01-16T01:18:29;1.80;99.90
31967;DHT22;18496;52.042;6.812;2024-01-16T01:20:33;1.80;99.90
31967;DHT22;18496;52.042;6.812;2024-01-16T01:22:36;1.80;99.90
31967;DHT22;18496;52.042;6.812;2024-01-16T01:24:40;1.80;99.90
31967;DHT22;18496;52.042;6.812;2024-01-16T01:26:44;1.90;99.90
31967;DHT22;18496;52.042;6.812;2024-01-16T01:28:48;1.90;99.90
31967;DHT22;18496;52.042;6.812;2024-01-16T01:30:52;1.80;99.90
31967;DHT22;18496;52.042;6.812;2024-01-16T01:32:55;1.80;99.90
31967;DHT22;18496;52.042;6.812;2024-01-16T01:34:59;1.80;99.90
31967;DHT22;18496;52.042;6.812;2024-01-16T01:37:03;1.80;99.90
31967;DHT22;18496;52.042;6.812;2024-01-16T01:39:07;1.80;99.90
31967;DHT22;18496;52.042;6.812;2024-01-16T01:41:10;1.80;99.90
31967;DHT22;18496;52.042;6.812;2024-01-16T01:43:23;1.80;99.90
31967;DHT22;18496;52.042;6.812;2024-01-16T01:45:27;1.80;99.90
31967;DHT22;18496;52.042;6.812;2024-01-16T01:47:31;1.80;99.90
31967;DHT22;18496;52.042;6.812;2024-01-16T01:49:35;1.80;99.90
31967;DHT22;18496;52.042;6.812;2024-01-16T01:51:39;1.80;99.90
31967;DHT22;18496;52.042;6.812;2024-01-16T01:53:44;1.80;99.90
31967;DHT22;18496;52.042;6.812;2024-01-16T01:55:48;1.80;99.90
31967;DHT22;18496;52.042;6.812;2024-01-16T01:57:52;1.80;99.90
31967;DHT22;18496;52.042;6.812;2024-01-16T01:59:56;1.80;99.90
31967;DHT22;18496;52.042;6.812;2024-01-16T02:02:04;1.70;99.90
31967;DHT22;18496;52.042;6.812;2024-01-16T02:04:08;1.70;99.90
31967;DHT22;18496;52.042;6.812;2024-01-16T02:06:13;1.70;99.90
31967;DHT22;18496;52.042;6.812;2024-01-16T02:08:17;1.80;99.90
31967;DHT22;18496;52.042;6.812;2024-01-16T02:10:21;1.70;99.90
31967;DHT22;18496;52.042;6.812;2024-01-16T02:12:25;1.80;99.90
31967;DHT22;18496;52.042;6.812;2024-01-16T02:14:29;1.70;99.90
31967;DHT22;18496;52.042;6.812;2024-01-16T02:16:37;1.70;99.90
31967;DHT22;18496;52.042;6.812;2024-01-16T02:18:41;1.80;99.90
31967;DHT22;18496;52.042;6.812;2024-01-16T02:20:46;1.80;99.90
31967;DHT22;18496;52.042;6.812;2024-01-16T02:22:53;1.80;99.90
31967;DHT22;18496;52.042;6.812;2024-01-16T02:24:58;1.80;99.90
31967;DHT22;18496;52.042;6.812;2024-01-16T02:27:02;1.80;99.90
31967;DHT22;18496;52.042;6.812;2024-01-16T02:29:05;1.80;99.90
31967;DHT22;18496;52.042;6.812;2024-01-16T02:31:09;1.80;99.90
31967;DHT22;18496;52.042;6.812;2024-01-16T02:33:13;1.80;99.90
31967;DHT22;18496;52.042;6.812;2024-01-16T02:35:16;1.80;99.90
31967;DHT22;18496;52.042;6.812;2024-01-16T02:37:21;1.80;99.90
31967;DHT22;18496;52.042;6.812;2024-01-16T02:39:26;1.80;99.90
31967;DHT22;18496;52.042;6.812;2024-01-16T02:41:30;1.80;99.90
31967;DHT22;18496;52.042;6.812;2024-01-16T02:43:33;1.80;99.90
31967;DHT22;18496;52.042;6.812;2024-01-16T02:45:37;1.80;99.90
31967;DHT22;18496;52.042;6.812;2024-01-16T02:47:41;1.80;99.90
31967;DHT22;18496;52.042;6.812;2024-01-16T02:49:44;1.70;99.90
31967;DHT22;18496;52.042;6.812;2024-01-16T02:51:48;1.70;99.90
31967;DHT22;18496;52.042;6.812;2024-01-16T02:53:52;1.70;99.90
31967;DHT22;18496;52.042;6.812;2024-01-16T02:55:56;1.70;99.90
31967;DHT22;18496;52.042;6.812;2024-01-16T02:58:02;1.70;99.90
31967;DHT22;18496;52.042;6.812;2024-01-16T03:00:07;1.80;99.90
31967;DHT22;18496;52.042;6.812;2024-01-16T03:02:12;1.80;99.90
31967;DHT22;18496;52.042;6.812;2024-01-16T03:04:16;1.70;99.90
31967;DHT22;18496;52.042;6.812;2024-01-16T03:06:24;1.80;99.90
31967;DHT22;18496;52.042;6.812;2024-01-16T03:08:27;1.70;99.90
31967;DHT22;18496;52.042;6.812;2024-01-16T03:10:31;1.70;99.90
31967;DHT22;18496;52.042;6.812;2024-01-16T03:12:35;1.70;99.90
31967;DHT22;18496;52.042;6.812;2024-01-16T03:14:38;1.70;99.90
31967;DHT22;18496;52.042;6.812;2024-01-16T03:16:42;1.70;99.90
31967;DHT22;18496;52.042;6.812;2024-01-16T03:18:46;1.70;99.90
31967;DHT22;18496;52.042;6.812;2024-01-16T03:20:50;1.70;99.90
31967;DHT22;18496;52.042;6.812;2024-01-16T03:22:54;1.70;99.90
31967;DHT22;18496;52.042;6.812;2024-01-16T03:24:58;1.70;99.90
31967;DHT22;18496;52.042;6.812;2024-01-16T03:27:02;1.70;99.90
31967;DHT22;18496;52.042;6.812;2024-01-16T03:29:05;1.70;99.90
31967;DHT22;18496;52.042;6.812;2024-01-16T03:31:09;1.70;99.90
31967;DHT22;18496;52.042;6.812;2024-01-16T03:33:13;1.70;99.90
31967;DHT22;18496;52.042;6.812;2024-01-16T03:35:17;1.70;99.90
31967;DHT22;18496;52.042;6.812;2024-01-16T03:37:21;1.70;99.90
31967;DHT22;18496;52.042;6.812;2024-01-16T03:39:24;1.70;99.90
31967;DHT22;18496;52.042;6.812;2024-01-16T03:41:28;1.80;99.90
31967;DHT22;18496;52.042;6.812;2024-01-16T03:43:32;1.80;99.90
31967;DHT22;18496;52.042;6.812;2024-01-16T03:45:36;1.80;99.90
31967;DHT22;18496;52.042;6.812;2024-01-16T03:47:40;1.80;99.90
31967;DHT22;18496;52.042;6.812;2024-01-16T03:49:43;1.80;99.90
31967;DHT22;18496;52.042;6.812;2024-01-16T03:51:47;1.80;99.90
31967;DHT22;18496;52.042;6.812;2024-01-16T03:53:51;1.80;99.90
31967;DHT22;18496;52.042;6.812;2024-01-16T03:55:55;1.80;99.90
31967;DHT22;18496;52.042;6.812;2024-01-16T03:57:59;1.80;99.90
31967;DHT22;18496;52.042;6.812;2024-01-16T04:00:03;1.80;99.90
31967;DHT22;18496;52.042;6.812;2024-01-16T04:02:08;1.80;99.90
31967;DHT22;18496;52.042;6.812;2024-01-16T04:04:12;1.80;99.90
31967;DHT22;18496;52.042;6.812;2024-01-16T04:06:17;1.80;99.90
31967;DHT22;18496;52.042;6.812;2024-01-16T04:08:20;1.80;99.90
31967;DHT22;18496;52.042;6.812;2024-01-16T04:10:24;1.80;99.90
31967;DHT22;18496;52.042;6.812;2024-01-16T04:12:28;1.80;99.90
31967;DHT22;18496;52.042;6.812;2024-01-16T04:14:31;1.80;99.90
31967;DHT22;18496;52.042;6.812;2024-01-16T04:16:35;1.80;99.90
31967;DHT22;18496;52.042;6.812;2024-01-16T04:18:43;1.80;99.90
31967;DHT22;18496;52.042;6.812;2024-01-16T04:20:47;1.90;99.90
31967;DHT22;18496;52.042;6.812;2024-01-16T04:22:51;1.90;99.90
31967;DHT22;18496;52.042;6.812;2024-01-16T04:24:54;1.90;99.90
31967;DHT22;18496;52.042;6.812;2024-01-16T04:26:58;1.90;99.90
31967;DHT22;18496;52.042;6.812;2024-01-16T04:29:02;1.90;99.90
31967;DHT22;18496;52.042;6.812;2024-01-16T04:31:05;1.90;99.90
31967;DHT22;18496;52.042;6.812;2024-01-16T04:33:10;1.90;99.90
31967;DHT22;18496;52.042;6.812;2024-01-16T04:35:13;1.90;99.90
31967;DHT22;18496;52.042;6.812;2024-01-16T04:37:18;1.90;99.90
31967;DHT22;18496;52.042;6.812;2024-01-16T04:39:22;1.90;99.90
31967;DHT22;18496;52.042;6.812;2024-01-16T04:41:26;1.90;99.90
31967;DHT22;18496;52.042;6.812;2024-01-16T04:43:30;1.90;99.90
31967;DHT22;18496;52.042;6.812;2024-01-16T04:45:33;1.90;99.90
31967;DHT22;18496;52.042;6.812;2024-01-16T04:47:38;1.90;99.90
31967;DHT22;18496;52.042;6.812;2024-01-16T04:49:44;1.90;99.90
31967;DHT22;18496;52.042;6.812;2024-01-16T04:51:48;2.00;99.90
31967;DHT22;18496;52.042;6.812;2024-01-16T04:53:51;1.90;99.90
31967;DHT22;18496;52.042;6.812;2024-01-16T04:55:55;2.00;99.90
31967;DHT22;18496;52.042;6.812;2024-01-16T04:57:59;2.00;99.90
31967;DHT22;18496;52.042;6.812;2024-01-16T05:00:04;2.00;99.90
31967;DHT22;18496;52.042;6.812;2024-01-16T05:02:10;2.00;99.90
31967;DHT22;18496;52.042;6.812;2024-01-16T05:04:14;2.00;99.90
31967;DHT22;18496;52.042;6.812;2024-01-16T05:06:18;2.00;99.90
31967;DHT22;18496;52.042;6.812;2024-01-16T05:08:21;2.10;99.90
31967;DHT22;18496;52.042;6.812;2024-01-16T05:10:25;2.00;99.90
31967;DHT22;18496;52.042;6.812;2024-01-16T05:12:29;2.10;99.90
31967;DHT22;18496;52.042;6.812;2024-01-16T05:14:32;2.10;99.90
31967;DHT22;18496;52.042;6.812;2024-01-16T05:16:36;2.10;99.90
31967;DHT22;18496;52.042;6.812;2024-01-16T05:18:43;2.00;99.90
31967;DHT22;18496;52.042;6.812;2024-01-16T05:20:46;2.00;99.90
31967;DHT22;18496;52.042;6.812;2024-01-16T05:22:50;2.00;99.90
31967;DHT22;18496;52.042;6.812;2024-01-16T05:24:54;2.00;99.90
31967;DHT22;18496;52.042;6.812;2024-01-16T05:26:57;2.00;99.90
31967;DHT22;18496;52.042;6.812;2024-01-16T05:29:01;2.00;99.90
31967;DHT22;18496;52.042;6.812;2024-01-16T05:31:05;2.00;99.90
31967;DHT22;18496;52.042;6.812;2024-01-16T05:33:09;2.00;99.90
31967;DHT22;18496;52.042;6.812;2024-01-16T05:35:12;2.00;99.90
31967;DHT22;18496;52.042;6.812;2024-01-16T05:37:16;2.10;99.90
31967;DHT22;18496;52.042;6.812;2024-01-16T05:39:20;2.00;99.90
31967;DHT22;18496;52.042;6.812;2024-01-16T05:41:24;2.00;99.90
31967;DHT22;18496;52.042;6.812;2024-01-16T05:43:28;2.00;99.90
31967;DHT22;18496;52.042;6.812;2024-01-16T05:45:33;2.00;99.90
31967;DHT22;18496;52.042;6.812;2024-01-16T05:47:36;2.00;99.90
31967;DHT22;18496;52.042;6.812;2024-01-16T05:49:40;2.00;99.90
31967;DHT22;18496;52.042;6.812;2024-01-16T05:51:45;2.00;99.90
31967;DHT22;18496;52.042;6.812;2024-01-16T05:53:49;2.00;99.90
31967;DHT22;18496;52.042;6.812;2024-01-16T05:55:53;2.00;99.90
31967;DHT22;18496;52.042;6.812;2024-01-16T05:57:58;2.00;99.90
31967;DHT22;18496;52.042;6.812;2024-01-16T06:00:04;2.00;99.90
31967;DHT22;18496;52.042;6.812;2024-01-16T06:02:09;2.00;99.90
31967;DHT22;18496;52.042;6.812;2024-01-16T06:04:14;2.00;99.90
31967;DHT22;18496;52.042;6.812;2024-01-16T06:06:18;1.90;99.90
31967;DHT22;18496;52.042;6.812;2024-01-16T06:08:22;2.00;99.90
31967;DHT22;18496;52.042;6.812;2024-01-16T06:10:26;2.00;99.90
31967;DHT22;18496;52.042;6.812;2024-01-16T06:12:30;2.00;99.90
31967;DHT22;18496;52.042;6.812;2024-01-16T06:14:34;1.90;99.90
31967;DHT22;18496;52.042;6.812;2024-01-16T06:16:37;1.90;99.90
31967;DHT22;18496;52.042;6.812;2024-01-16T06:18:41;1.90;99.90
31967;DHT22;18496;52.042;6.812;2024-01-16T06:20:45;1.90;99.90
31967;DHT22;18496;52.042;6.812;2024-01-16T06:22:48;1.90;99.90
31967;DHT22;18496;52.042;6.812;2024-01-16T06:24:52;1.90;99.90
31967;DHT22;18496;52.042;6.812;2024-01-16T06:26:55;1.90;99.90
31967;DHT22;18496;52.042;6.812;2024-01-16T06:28:59;1.90;99.90
31967;DHT22;18496;52.042;6.812;2024-01-16T06:31:03;1.90;99.90
31967;DHT22;18496;52.042;6.812;2024-01-16T06:33:07;1.90;99.90
31967;DHT22;18496;52.042;6.812;2024-01-16T06:35:12;1.90;99.90
31967;DHT22;18496;52.042;6.812;2024-01-16T06:37:16;1.90;99.90
31967;DHT22;18496;52.042;6.812;2024-01-16T06:39:19;1.90;99.90
31967;DHT22;18496;52.042;6.812;2024-01-16T06:41:23;2.00;99.90
31967;DHT22;18496;52.042;6.812;2024-01-16T06:43:27;2.00;99.90
31967;DHT22;18496;52.042;6.812;2024-01-16T06:45:31;2.00;99.90
31967;DHT22;18496;52.042;6.812;2024-01-16T06:47:34;2.00;99.90
31967;DHT22;18496;52.042;6.812;2024-01-16T06:49:38;2.00;99.90
31967;DHT22;18496;52.042;6.812;2024-01-16T06:51:42;2.00;99.90
31967;DHT22;18496;52.042;6.812;2024-01-16T06:53:45;2.00;99.90
31967;DHT22;18496;52.042;6.812;2024-01-16T06:55:49;2.00;99.90
31967;DHT22;18496;52.042;6.812;2024-01-16T06:57:53;2.00;99.90
31967;DHT22;18496;52.042;6.812;2024-01-16T06:59:56;2.00;99.90
31967;DHT22;18496;52.042;6.812;2024-01-16T07:02:00;2.00;99.90
31967;DHT22;18496;52.042;6.812;2024-01-16T07:04:03;2.00;99.90
31967;DHT22;18496;52.042;6.812;2024-01-16T07:06:07;2.00;99.90
31967;DHT22;18496;52.042;6.812;2024-01-16T07:08:11;2.00;99.90
31967;DHT22;18496;52.042;6.812;2024-01-16T07:10:14;2.00;99.90
31967;DHT22;18496;52.042;6.812;2024-01-16T07:12:21;2.00;99.90
31967;DHT22;18496;52.042;6.812;2024-01-16T07:14:25;2.00;99.90
31967;DHT22;18496;52.042;6.812;2024-01-16T07:16:29;1.90;99.90
31967;DHT22;18496;52.042;6.812;2024-01-16T07:18:32;2.00;99.90
31967;DHT22;18496;52.042;6.812;2024-01-16T07:20:37;2.00;99.90
31967;DHT22;18496;52.042;6.812;2024-01-16T07:22:40;1.90;99.90
31967;DHT22;18496;52.042;6.812;2024-01-16T07:24:44;2.00;99.90
31967;DHT22;18496;52.042;6.812;2024-01-16T07:26:47;2.00;99.90
31967;DHT22;18496;52.042;6.812;2024-01-16T07:28:51;2.00;99.90
31967;DHT22;18496;52.042;6.812;2024-01-16T07:30:55;1.90;99.90
31967;DHT22;18496;52.042;6.812;2024-01-16T07:32:59;2.00;99.90
31967;DHT22;18496;52.042;6.812;2024-01-16T07:35:02;2.00;99.90
31967;DHT22;18496;52.042;6.812;2024-01-16T07:37:06;2.00;99.90
31967;DHT22;18496;52.042;6.812;2024-01-16T07:39:10;2.00;99.90
31967;DHT22;18496;52.042;6.812;2024-01-16T07:41:14;2.00;99.90
31967;DHT22;18496;52.042;6.812;2024-01-16T07:43:17;2.00;99.90
31967;DHT22;18496;52.042;6.812;2024-01-16T07:45:21;2.00;99.90
31967;DHT22;18496;52.042;6.812;2024-01-16T07:47:25;2.00;99.90
31967;DHT22;18496;52.042;6.812;2024-01-16T07:49:28;2.00;99.90
31967;DHT22;18496;52.042;6.812;2024-01-16T07:51:32;2.00;99.90
31967;DHT22;18496;52.042;6.812;2024-01-16T07:53:36;2.00;99.90
31967;DHT22;18496;52.042;6.812;2024-01-16T07:55:40;2.00;99.90
31967;DHT22;18496;52.042;6.812;2024-01-16T07:57:44;2.00;99.90
31967;DHT22;18496;52.042;6.812;2024-01-16T07:59:47;2.00;99.90
31967;DHT22;18496;52.042;6.812;2024-01-16T08:01:51;2.00;99.90
31967;DHT22;18496;52.042;6.812;2024-01-16T08:03:55;2.00;99.90
31967;DHT22;18496;52.042;6.812;2024-01-16T08:05:59;1.90;99.90
31967;DHT22;18496;52.042;6.812;2024-01-16T08:08:03;2.00;99.90
31967;DHT22;18496;52.042;6.812;2024-01-16T08:10:08;2.00;99.90
31967;DHT22;18496;52.042;6.812;2024-01-16T08:12:12;2.00;99.90
31967;DHT22;18496;52.042;6.812;2024-01-16T08:14:16;2.00;99.90
31967;DHT22;18496;52.042;6.812;2024-01-16T08:16:19;2.00;99.90
31967;DHT22;18496;52.042;6.812;2024-01-16T08:18:24;2.00;99.90
31967;DHT22;18496;52.042;6.812;2024-01-16T08:20:28;2.00;99.90
31967;DHT22;18496;52.042;6.812;2024-01-16T08:22:32;2.00;99.90
31967;DHT22;18496;52.042;6.812;2024-01-16T08:24:35;2.00;99.90
31967;DHT22;18496;52.042;6.812;2024-01-16T08:26:39;2.00;99.90
31967;DHT22;18496;52.042;6.812;2024-01-16T08:28:43;2.00;99.90
31967;DHT22;18496;52.042;6.812;2024-01-16T08:30:46;2.00;99.90
31967;DHT22;18496;52.042;6.812;2024-01-16T08:32:50;2.00;99.90
31967;DHT22;18496;52.042;6.812;2024-01-16T08:34:54;2.00;99.90
31967;DHT22;18496;52.042;6.812;2024-01-16T08:36:57;2.00;99.90
31967;DHT22;18496;52.042;6.812;2024-01-16T08:39:01;2.00;99.90
31967;DHT22;18496;52.042;6.812;2024-01-16T08:41:05;2.00;99.90
31967;DHT22;18496;52.042;6.812;2024-01-16T08:43:12;2.10;99.90
31967;DHT22;18496;52.042;6.812;2024-01-16T08:45:16;2.10;99.90
31967;DHT22;18496;52.042;6.812;2024-01-16T08:47:19;2.10;99.90
31967;DHT22;18496;52.042;6.812;2024-01-16T08:49:23;2.10;99.90
31967;DHT22;18496;52.042;6.812;2024-01-16T08:51:27;2.10;99.90
31967;DHT22;18496;52.042;6.812;2024-01-16T08:53:30;2.10;99.90
31967;DHT22;18496;52.042;6.812;2024-01-16T08:55:34;2.10;99.90
31967;DHT22;18496;52.042;6.812;2024-01-16T08:57:38;2.10;99.90
31967;DHT22;18496;52.042;6.812;2024-01-16T08:59:41;2.10;99.90
31967;DHT22;18496;52.042;6.812;2024-01-16T09:01:45;2.10;99.90
31967;DHT22;18496;52.042;6.812;2024-01-16T09:03:49;2.10;99.90
31967;DHT22;18496;52.042;6.812;2024-01-16T09:05:52;2.10;99.90
31967;DHT22;18496;52.042;6.812;2024-01-16T09:07:56;2.10;99.90
31967;DHT22;18496;52.042;6.812;2024-01-16T09:10:00;2.10;99.90
31967;DHT22;18496;52.042;6.812;2024-01-16T09:12:04;2.10;99.90
31967;DHT22;18496;52.042;6.812;2024-01-16T09:14:07;2.10;99.90
31967;DHT22;18496;52.042;6.812;2024-01-16T09:16:12;2.10;99.90
31967;DHT22;18496;52.042;6.812;2024-01-16T09:18:16;2.10;99.90
31967;DHT22;18496;52.042;6.812;2024-01-16T09:20:19;2.10;99.90
31967;DHT22;18496;52.042;6.812;2024-01-16T09:22:23;2.10;99.90
31967;DHT22;18496;52.042;6.812;2024-01-16T09:24:27;2.10;99.90
31967;DHT22;18496;52.042;6.812;2024-01-16T09:26:30;2.10;99.90
31967;DHT22;18496;52.042;6.812;2024-01-16T09:28:35;2.10;99.90
31967;DHT22;18496;52.042;6.812;2024-01-16T09:30:38;2.10;99.90
31967;DHT22;18496;52.042;6.812;2024-01-16T09:32:42;2.10;99.90
31967;DHT22;18496;52.042;6.812;2024-01-16T09:34:46;2.10;99.90
31967;DHT22;18496;52.042;6.812;2024-01-16T09:36:49;2.10;99.90
31967;DHT22;18496;52.042;6.812;2024-01-16T09:38:53;2.10;99.90
31967;DHT22;18496;52.042;6.812;2024-01-16T09:40:57;2.10;99.90
31967;DHT22;18496;52.042;6.812;2024-01-16T09:43:03;2.10;99.90
31967;DHT22;18496;52.042;6.812;2024-01-16T09:45:09;2.10;99.90
31967;DHT22;18496;52.042;6.812;2024-01-16T09:47:13;2.10;99.90
31967;DHT22;18496;52.042;6.812;2024-01-16T09:49:18;2.10;99.90
31967;DHT22;18496;52.042;6.812;2024-01-16T09:51:22;2.10;99.90
31967;DHT22;18496;52.042;6.812;2024-01-16T09:53:26;2.10;99.90
31967;DHT22;18496;52.042;6.812;2024-01-16T09:55:30;2.20;99.90
31967;DHT22;18496;52.042;6.812;2024-01-16T09:57:35;2.20;99.90
31967;DHT22;18496;52.042;6.812;2024-01-16T09:59:40;2.10;99.90
31967;DHT22;18496;52.042;6.812;2024-01-16T10:01:45;2.10;99.90
31967;DHT22;18496;52.042;6.812;2024-01-16T10:03:49;2.10;99.90
31967;DHT22;18496;52.042;6.812;2024-01-16T10:05:53;2.10;99.90
31967;DHT22;18496;52.042;6.812;2024-01-16T10:07:58;2.10;99.90
31967;DHT22;18496;52.042;6.812;2024-01-16T10:10:02;2.10;99.90
31967;DHT22;18496;52.042;6.812;2024-01-16T10:12:06;2.10;99.90
31967;DHT22;18496;52.042;6.812;2024-01-16T10:14:10;2.10;99.90
31967;DHT22;18496;52.042;6.812;2024-01-16T10:16:14;2.10;99.90
31967;DHT22;18496;52.042;6.812;2024-01-16T10:18:29;2.10;99.90
31967;DHT22;18496;52.042;6.812;2024-01-16T10:20:37;2.10;99.90
31967;DHT22;18496;52.042;6.812;2024-01-16T10:22:41;2.10;99.90
31967;DHT22;18496;52.042;6.812;2024-01-16T10:24:44;2.10;99.90
31967;DHT22;18496;52.042;6.812;2024-01-16T10:26:58;2.10;99.90
31967;DHT22;18496;52.042;6.812;2024-01-16T10:29:03;2.10;99.90
31967;DHT22;18496;52.042;6.812;2024-01-16T10:31:12;2.10;99.90
31967;DHT22;18496;52.042;6.812;2024-01-16T10:33:19;2.10;99.90
31967;DHT22;18496;52.042;6.812;2024-01-16T10:35:23;2.10;99.90
31967;DHT22;18496;52.042;6.812;2024-01-16T10:37:26;2.10;99.90
31967;DHT22;18496;52.042;6.812;2024-01-16T10:39:30;2.10;99.90
31967;DHT22;18496;52.042;6.812;2024-01-16T10:41:34;2.10;99.90
31967;DHT22;18496;52.042;6.812;2024-01-16T10:43:38;2.10;99.90
31967;DHT22;18496;52.042;6.812;2024-01-16T10:45:41;2.10;99.90
31967;DHT22;18496;52.042;6.812;2024-01-16T10:47:46;2.10;99.90
31967;DHT22;18496;52.042;6.812;2024-01-16T10:49:50;2.10;99.90
31967;DHT22;18496;52.042;6.812;2024-01-16T10:51:53;2.10;99.90
31967;DHT22;18496;52.042;6.812;2024-01-16T10:54:03;2.10;99.90
31967;DHT22;18496;52.042;6.812;2024-01-16T10:56:10;2.10;99.90
31967;DHT22;18496;52.042;6.812;2024-01-16T10:58:16;2.10;99.90
31967;DHT22;18496;52.042;6.812;2024-01-16T11:00:24;2.10;99.90
31967;DHT22;18496;52.042;6.812;2024-01-16T11:02:38;2.10;99.90
31967;DHT22;18496;52.042;6.812;2024-01-16T11:04:43;2.10;99.90
31967;DHT22;18496;52.042;6.812;2024-01-16T11:06:47;2.10;99.90
31967;DHT22;18496;52.042;6.812;2024-01-16T11:08:52;2.10;99.90
31967;DHT22;18496;52.042;6.812;2024-01-16T11:10:58;2.10;99.90
31967;DHT22;18496;52.042;6.812;2024-01-16T11:13:04;2.10;99.90
31967;DHT22;18496;52.042;6.812;2024-01-16T11:15:10;2.10;99.90
31967;DHT22;18496;52.042;6.812;2024-01-16T11:17:16;2.10;99.90
31967;DHT22;18496;52.042;6.812;2024-01-16T11:19:22;2.20;99.90
31967;DHT22;18496;52.042;6.812;2024-01-16T11:21:26;2.20;99.90
31967;DHT22;18496;52.042;6.812;2024-01-16T11:23:30;2.20;99.90
31967;DHT22;18496;52.042;6.812;2024-01-16T11:25:34;2.20;99.90
31967;DHT22;18496;52.042;6.812;2024-01-16T11:27:38;2.20;99.90
31967;DHT22;18496;52.042;6.812;2024-01-16T11:29:42;2.30;99.90
31967;DHT22;18496;52.042;6.812;2024-01-16T11:31:46;2.30;99.90
31967;DHT22;18496;52.042;6.812;2024-01-16T11:33:49;2.30;99.90
31967;DHT22;18496;52.042;6.812;2024-01-16T11:35:53;2.30;99.90
31967;DHT22;18496;52.042;6.812;2024-01-16T11:38:24;2.40;99.90
31967;DHT22;18496;52.042;6.812;2024-01-16T11:40:33;2.40;99.90
31967;DHT22;18496;52.042;6.812;2024-01-16T11:42:37;2.40;99.90
31967;DHT22;18496;52.042;6.812;2024-01-16T11:44:47;2.40;99.90
31967;DHT22;18496;52.042;6.812;2024-01-16T11:47:20;2.40;99.90
31967;DHT22;18496;52.042;6.812;2024-01-16T11:49:24;2.50;99.90
31967;DHT22;18496;52.042;6.812;2024-01-16T11:51:28;2.50;99.90
31967;DHT22;18496;52.042;6.812;2024-01-16T11:53:37;2.50;99.90
31967;DHT22;18496;52.042;6.812;2024-01-16T11:56:16;2.50;99.90
31967;DHT22;18496;52.042;6.812;2024-01-16T11:58:45;2.50;99.90
31967;DHT22;18496;52.042;6.812;2024-01-16T12:00:52;2.50;99.90
31967;DHT22;18496;52.042;6.812;2024-01-16T12:02:56;2.50;99.90
31967;DHT22;18496;52.042;6.812;2024-01-16T12:05:00;2.60;99.90
31967;DHT22;18496;52.042;6.812;2024-01-16T12:07:08;2.60;99.90
31967;DHT22;18496;52.042;6.812;2024-01-16T12:09:15;2.60;99.90
31967;DHT22;18496;52.042;6.812;2024-01-16T12:11:19;2.70;99.90
31967;DHT22;18496;52.042;6.812;2024-01-16T12:13:23;2.70;99.90
31967;DHT22;18496;52.042;6.812;2024-01-16T12:15:26;2.70;99.90
31967;DHT22;18496;52.042;6.812;2024-01-16T12:17:30;2.70;99.90
31967;DHT22;18496;52.042;6.812;2024-01-16T12:19:34;2.70;99.90
31967;DHT22;18496;52.042;6.812;2024-01-16T12:21:45;2.80;99.90
31967;DHT22;18496;52.042;6.812;2024-01-16T12:23:49;2.80;99.90
31967;DHT22;18496;52.042;6.812;2024-01-16T12:25:53;2.80;99.90
31967;DHT22;18496;52.042;6.812;2024-01-16T12:28:03;2.80;99.90
31967;DHT22;18496;52.042;6.812;2024-01-16T12:30:08;2.80;99.90
31967;DHT22;18496;52.042;6.812;2024-01-16T12:32:12;2.90;99.90
31967;DHT22;18496;52.042;6.812;2024-01-16T12:34:22;2.90;99.90
31967;DHT22;18496;52.042;6.812;2024-01-16T12:36:26;2.90;99.90
31967;DHT22;18496;52.042;6.812;2024-01-16T12:38:29;2.90;99.90
31967;DHT22;18496;52.042;6.812;2024-01-16T12:40:33;2.90;99.90
31967;DHT22;18496;52.042;6.812;2024-01-16T12:42:37;3.00;99.90
31967;DHT22;18496;52.042;6.812;2024-01-16T12:44:40;3.00;99.90
31967;DHT22;18496;52.042;6.812;2024-01-16T12:46:54;3.10;99.90
31967;DHT22;18496;52.042;6.812;2024-01-16T12:49:05;3.10;99.90
31967;DHT22;18496;52.042;6.812;2024-01-16T12:51:10;3.10;99.90
31967;DHT22;18496;52.042;6.812;2024-01-16T12:53:15;3.10;99.90
31967;DHT22;18496;52.042;6.812;2024-01-16T12:55:22;3.20;99.90
31967;DHT22;18496;52.042;6.812;2024-01-16T12:57:26;3.20;99.90
31967;DHT22;18496;52.042;6.812;2024-01-16T12:59:29;3.20;99.90
31967;DHT22;18496;52.042;6.812;2024-01-16T13:01:33;3.30;99.90
31967;DHT22;18496;52.042;6.812;2024-01-16T13:03:37;3.30;99.90
31967;DHT22;18496;52.042;6.812;2024-01-16T13:05:41;3.30;99.90
31967;DHT22;18496;52.042;6.812;2024-01-16T13:07:45;3.30;99.90
31967;DHT22;18496;52.042;6.812;2024-01-16T13:09:50;3.30;99.90
31967;DHT22;18496;52.042;6.812;2024-01-16T13:11:55;3.30;99.90
31967;DHT22;18496;52.042;6.812;2024-01-16T13:14:02;3.30;99.90
31967;DHT22;18496;52.042;6.812;2024-01-16T13:16:08;3.40;99.90
31967;DHT22;18496;52.042;6.812;2024-01-16T13:20:23;3.30;99.90
31967;DHT22;18496;52.042;6.812;2024-01-16T13:22:27;3.30;99.90